Time;durP1;ratioP1;P1;durP2;ratioP2;P2;SDS_P1;SDS_P2;PMS_P1;PMS_P2;Temp;Humidity;BMP_temperature;BMP_pressure;BME280_temperature;BME280_humidity;BME280_pressure;Samples;Min_cycle;Max_cycle;Signal;HPM_P1;HPM_P2
2022/04/22 00:02:19;;;;;;;10.10;7.18;;;;;;;10.78;67.00;100797.56;5078194;28;20029;-64
2022/04/22 00:04:45;;;;;;;10.48;7.18;;;;;;;10.73;67.30;100796.81;5077258;28;20414;-61
2022/04/22 00:07:10;;;;;;;11.48;8.02;;;;;;;10.70;67.74;100782.88;5077628;28;20024;-62
2022/04/22 00:09:36;;;;;;;11.35;8.25;;;;;;;10.69;68.05;100795.13;5076410;28;20442;-63
2022/04/22 00:12:03;;;;;;;12.38;7.85;;;;;;;10.69;68.00;100776.78;5077458;28;20037;-63
2022/04/22 00:14:28;;;;;;;11.35;7.43;;;;;;;10.61;68.26;100785.63;5077566;28;20352;-62
2022/04/22 00:16:53;;;;;;;9.52;7.72;;;;;;;10.61;68.70;100786.50;5076891;28;20032;-63
2022/04/22 00:19:19;;;;;;;12.30;8.05;;;;;;;10.61;68.42;100780.41;5077568;28;20040;-62
2022/04/22 00:21:47;;;;;;;12.50;8.65;;;;;;;10.56;68.36;100787.47;5077438;28;20028;-62
2022/04/22 00:24:12;;;;;;;12.57;7.95;;;;;;;10.52;68.95;100785.78;5077191;28;20051;-62
2022/04/22 00:26:37;;;;;;;10.50;8.18;;;;;;;10.44;69.71;100784.13;5077076;28;20352;-62
2022/04/22 00:29:02;;;;;;;12.80;8.27;;;;;;;10.43;69.59;100787.63;5077203;28;20093;-62
2022/04/22 00:31:28;;;;;;;10.98;8.20;;;;;;;10.50;69.28;100785.78;5077307;28;20060;-61
2022/04/22 00:33:53;;;;;;;13.10;8.98;;;;;;;10.41;69.97;100778.06;5077017;28;20513;-63
2022/04/22 00:36:18;;;;;;;13.73;8.68;;;;;;;10.35;70.16;100783.38;5076989;28;20043;-62
2022/04/22 00:38:44;;;;;;;11.98;8.90;;;;;;;10.36;70.00;100777.28;5077169;28;20341;-63
2022/04/22 00:41:09;;;;;;;13.98;9.23;;;;;;;10.26;70.68;100773.03;5077044;28;20028;-61
2022/04/22 00:43:45;;;;;;;14.43;9.00;;;;;;;10.35;69.79;100776.41;5077017;28;20040;-63
2022/04/22 00:46:11;;;;;;;12.65;9.02;;;;;;;10.31;70.94;100776.47;5076853;28;20028;-62
2022/04/22 00:48:37;;;;;;;14.52;9.10;;;;;;;10.31;70.62;100771.22;5076687;28;20032;-61
2022/04/22 00:51:07;;;;;;;11.80;8.73;;;;;;;10.29;71.35;100767.75;5076776;28;20028;-62
2022/04/22 00:53:36;;;;;;;12.13;8.73;;;;;;;10.27;71.40;100767.78;5076557;28;20470;-62
2022/04/22 00:56:04;;;;;;;12.05;8.55;;;;;;;10.28;71.30;100771.25;5076477;28;20064;-62
2022/04/22 00:58:30;;;;;;;15.45;9.10;;;;;;;10.16;71.74;100764.44;5076564;28;20044;-62
2022/04/22 01:00:55;;;;;;;15.38;9.80;;;;;;;10.09;72.28;100754.91;5076701;28;20029;-62
2022/04/22 01:03:20;;;;;;;13.82;9.38;;;;;;;10.07;72.11;100756.69;5076563;28;20043;-63
2022/04/22 01:11:16;;;;;;;12.63;8.85;;;;;;;9.91;73.19;100756.00;5076305;28;20043;-62
2022/04/22 01:13:43;;;;;;;13.13;9.40;;;;;;;9.89;73.35;100752.53;5076448;28;20032;-62
2022/04/22 01:16:08;;;;;;;12.45;9.50;;;;;;;9.91;73.41;100750.78;5076375;28;20359;-62
2022/04/22 01:18:33;;;;;;;14.23;9.30;;;;;;;9.83;73.87;100750.03;5076111;28;20040;-62
2022/04/22 01:21:02;;;;;;;12.90;9.35;;;;;;;9.76;74.06;100740.50;5075931;28;20028;-62
2022/04/22 01:23:28;;;;;;;14.38;9.20;;;;;;;9.69;74.44;100723.19;5075974;28;20075;-61
2022/04/22 01:25:53;;;;;;;14.15;9.30;;;;;;;9.76;74.63;100740.50;5076232;28;20056;-63
2022/04/22 01:28:19;;;;;;;13.45;8.95;;;;;;;9.72;74.72;100747.53;5076220;28;20115;-62
2022/04/22 01:30:45;;;;;;;17.55;10.43;;;;;;;9.83;74.37;100741.31;5076068;28;20042;-62
2022/04/22 01:33:10;;;;;;;13.82;9.20;;;;;;;9.78;74.83;100737.00;5075736;28;20129;-62
2022/04/22 01:35:35;;;;;;;15.10;9.82;;;;;;;9.77;74.56;100729.19;5075794;28;20105;-62
2022/04/22 01:38:00;;;;;;;14.30;9.68;;;;;;;9.77;74.96;100737.88;5076063;28;20032;-62
2022/04/22 01:40:26;;;;;;;11.68;9.65;;;;;;;9.82;75.16;100748.28;5076067;28;20043;-62
2022/04/22 01:42:51;;;;;;;14.95;9.85;;;;;;;9.76;75.28;100733.53;5075742;28;20431;-63
2022/04/22 01:45:16;;;;;;;15.15;10.43;;;;;;;9.79;75.47;100737.88;5076064;28;20461;-62
2022/04/22 01:47:42;;;;;;;15.15;10.73;;;;;;;9.79;75.36;100737.88;5075082;28;20028;-62
2022/04/22 01:50:07;;;;;;;17.90;9.82;;;;;;;9.72;75.93;100739.69;5075440;28;20024;-62
2022/04/22 01:52:36;;;;;;;17.60;11.05;;;;;;;9.72;76.25;100734.44;5075773;28;20032;-62
2022/04/22 01:55:03;;;;;;;15.02;9.98;;;;;;;9.74;76.26;100737.06;5075449;28;20029;-62
2022/04/22 01:57:28;;;;;;;15.55;9.88;;;;;;;9.64;76.33;100723.25;5075423;28;20035;-62
2022/04/22 01:59:55;;;;;;;16.42;10.43;;;;;;;9.59;76.66;100725.03;5075504;28;20024;-62
2022/04/22 02:02:20;;;;;;;14.65;9.65;;;;;;;9.64;76.95;100735.44;5074780;28;20032;-62
2022/04/22 02:04:46;;;;;;;16.60;10.25;;;;;;;9.63;76.80;100733.72;5075201;28;20035;-62
2022/04/22 02:07:11;;;;;;;16.15;10.60;;;;;;;9.64;77.22;100740.66;5075309;28;20064;-62
2022/04/22 02:09:37;;;;;;;14.50;10.48;;;;;;;9.61;77.14;100743.31;5075310;28;20363;-62
2022/04/22 02:12:04;;;;;;;16.52;10.70;;;;;;;9.55;77.28;100731.16;5075182;28;20090;-63
2022/04/22 02:14:29;;;;;;;13.40;11.00;;;;;;;9.53;77.46;100742.50;5075268;28;20036;-61
2022/04/22 02:16:55;;;;;;;14.18;10.73;;;;;;;9.48;77.71;100734.75;5075048;28;20451;-63
2022/04/22 02:19:20;;;;;;;13.95;10.57;;;;;;;9.54;77.79;100733.78;5074880;28;20466;-63
2022/04/22 02:21:46;;;;;;;14.98;10.88;;;;;;;9.45;78.07;100731.28;5075298;28;20028;-62
2022/04/22 02:24:11;;;;;;;16.77;10.88;;;;;;;9.41;78.54;100739.16;5074806;28;20025;-62
2022/04/22 02:29:21;;;;;;;22.25;12.25;;;;;;;9.35;79.08;100733.97;5074949;28;20418;-63
2022/04/22 02:31:47;;;;;;;16.73;11.70;;;;;;;9.32;79.26;100728.81;5074742;28;20116;-63
2022/04/22 02:34:12;;;;;;;15.25;11.35;;;;;;;9.35;79.30;100739.22;5073630;28;20075;-62
2022/04/22 02:36:39;;;;;;;16.23;11.80;;;;;;;9.35;79.45;100735.75;5075029;28;20042;-62
2022/04/22 02:39:05;;;;;;;16.40;10.93;;;;;;;9.40;79.18;100732.19;5075455;28;20378;-63
2022/04/22 02:46:58;;;;;;;16.45;11.85;;;;;;;9.23;79.86;100709.75;5074703;28;20051;-62
2022/04/22 02:49:23;;;;;;;16.70;11.93;;;;;;;9.27;79.97;100724.50;5074840;28;20024;-62
2022/04/22 02:51:51;;;;;;;14.75;12.13;;;;;;;9.19;80.16;100719.34;5075038;28;20043;-62
2022/04/22 02:54:16;;;;;;;16.75;11.98;;;;;;;9.14;80.49;100722.91;5075124;28;20037;-62
2022/04/22 02:56:42;;;;;;;18.75;12.50;;;;;;;9.11;80.80;100718.59;5074734;28;20029;-63
2022/04/22 02:59:08;;;;;;;17.50;12.02;;;;;;;9.10;80.67;100716.84;5074800;28;20033;-63
2022/04/22 03:01:33;;;;;;;17.17;13.05;;;;;;;9.08;81.16;100710.78;5074760;28;20309;-62
2022/04/22 03:03:59;;;;;;;17.15;11.68;;;;;;;8.93;81.21;100697.88;5075442;28;20040;-63
2022/04/22 03:06:26;;;;;;;16.50;11.98;;;;;;;9.03;81.24;100715.16;5074487;28;20029;-62
2022/04/22 03:08:52;;;;;;;17.05;12.63;;;;;;;8.92;81.56;100703.97;5074967;28;20025;-63
2022/04/22 03:11:21;;;;;;;16.80;11.88;;;;;;;8.88;81.90;100705.72;5074496;28;20039;-62
2022/04/22 03:13:52;;;;;;;16.58;12.32;;;;;;;8.88;82.22;100697.91;5074736;28;20044;-61
2022/04/22 03:16:18;;;;;;;16.88;12.85;;;;;;;8.84;82.54;100705.75;5074782;28;20033;-61
2022/04/22 03:18:44;;;;;;;17.75;12.38;;;;;;;8.91;82.57;100691.78;5074660;28;20029;-62
2022/04/22 03:21:09;;;;;;;17.75;12.88;;;;;;;8.87;82.77;100703.13;5074761;28;20416;-63
2022/04/22 03:23:34;;;;;;;17.10;12.18;;;;;;;8.93;82.60;100697.88;5074041;28;20109;-61
2022/04/22 03:26:00;;;;;;;17.95;12.65;;;;;;;8.86;82.60;100696.19;5074277;28;20044;-61
2022/04/22 03:28:26;;;;;;;16.58;12.48;;;;;;;8.87;82.58;100697.91;5074680;28;20033;-61
2022/04/22 03:30:51;;;;;;;17.00;12.60;;;;;;;8.85;82.65;100694.44;5074400;28;20028;-61
2022/04/22 03:33:17;;;;;;;17.33;12.65;;;;;;;8.82;82.92;100697.09;5074377;28;20448;-61
2022/04/22 03:35:43;;;;;;;20.77;13.48;;;;;;;8.74;83.20;100697.16;5074486;28;20044;-62
2022/04/22 03:38:11;;;;;;;18.90;13.30;;;;;;;8.71;83.40;100692.81;5073933;28;20401;-62
2022/04/22 03:40:36;;;;;;;19.42;13.70;;;;;;;8.73;83.86;100692.81;5074414;28;20052;-61
2022/04/22 03:43:01;;;;;;;20.05;13.32;;;;;;;8.80;83.65;100693.63;5074389;28;20428;-61
2022/04/22 03:45:27;;;;;;;20.05;13.50;;;;;;;8.72;83.85;100696.31;5077926;28;20028;-62
2022/04/22 03:47:52;;;;;;;17.65;13.13;;;;;;;8.71;84.07;100690.22;5078027;28;20032;-61
2022/04/22 03:50:17;;;;;;;18.48;14.18;;;;;;;8.66;84.15;100694.59;5078087;28;20038;-61
2022/04/22 03:52:42;;;;;;;19.98;13.73;;;;;;;8.63;84.35;100691.19;5077971;28;20316;-62
2022/04/22 03:55:08;;;;;;;19.63;14.35;;;;;;;8.67;84.05;100685.91;5077772;28;20037;-61
2022/04/22 04:00:18;;;;;;;23.02;14.45;;;;;;;8.65;84.47;100682.47;5077727;28;20070;-61
2022/04/22 04:02:43;;;;;;;22.55;15.10;;;;;;;8.49;85.08;100674.75;5077797;28;20025;-62
2022/04/22 04:05:09;;;;;;;20.88;14.75;;;;;;;8.54;84.99;100680.78;5077834;28;20119;-61
2022/04/22 04:07:34;;;;;;;20.83;15.02;;;;;;;8.50;85.36;100671.25;5076779;28;20447;-62
2022/04/22 04:18:11;;;;;;;22.65;15.82;;;;;;;8.39;86.07;100673.97;5077699;28;20047;-62
2022/04/22 04:23:20;;;;;;;22.98;15.88;;;;;;;8.20;86.40;100656.69;5077598;28;20047;-61
2022/04/22 04:25:47;;;;;;;22.00;15.20;;;;;;;8.35;86.47;100677.47;5076907;28;20021;-62
2022/04/22 04:28:14;;;;;;;22.05;15.55;;;;;;;8.31;86.71;100671.34;5077217;28;20397;-61
2022/04/22 04:30:41;;;;;;;22.98;16.23;;;;;;;8.33;86.70;100668.78;5077185;28;20038;-62
2022/04/22 04:33:10;;;;;;;25.63;15.77;;;;;;;8.31;87.14;100670.53;5077055;28;20056;-61
2022/04/22 04:35:37;;;;;;;22.23;15.70;;;;;;;8.30;87.04;100668.78;5077069;28;20044;-62
2022/04/22 04:38:03;;;;;;;23.00;16.30;;;;;;;8.33;87.30;100672.25;5076990;28;20032;-63
2022/04/22 04:40:28;;;;;;;23.88;16.10;;;;;;;8.28;87.46;100673.16;5077236;28;20443;-62
2022/04/22 04:42:53;;;;;;;23.95;16.52;;;;;;;8.30;87.36;100677.47;5076942;28;20329;-62
2022/04/22 04:45:20;;;;;;;22.17;16.00;;;;;;;8.37;87.31;100680.91;5077253;28;20036;-62
2022/04/22 04:47:45;;;;;;;26.08;16.42;;;;;;;8.34;87.46;100675.72;5076641;28;20036;-63
2022/04/22 04:50:12;;;;;;;25.73;16.85;;;;;;;8.33;87.45;100667.03;5076701;28;20420;-61
2022/04/22 04:52:37;;;;;;;24.90;17.00;;;;;;;8.45;87.53;100679.13;5076697;28;20041;-63
2022/04/22 04:55:08;;;;;;;26.02;16.40;;;;;;;8.44;87.30;100676.53;5076506;28;20446;-58
2022/04/22 04:57:33;;;;;;;26.40;16.17;;;;;;;8.43;87.30;100666.97;5076615;28;20032;-63
2022/04/22 04:59:59;;;;;;;24.95;17.08;;;;;;;8.45;87.45;100671.31;5076484;28;20486;-64
2022/04/22 05:02:25;;;;;;;25.33;16.90;;;;;;;8.45;87.78;100670.44;5076374;28;20032;-65
2022/04/22 05:04:50;;;;;;;24.02;16.90;;;;;;;8.43;87.92;100664.38;5075989;28;20104;-64
2022/04/22 05:07:15;;;;;;;23.65;16.85;;;;;;;8.48;87.56;100666.09;5076423;28;20432;-65
2022/04/22 05:09:40;;;;;;;23.02;16.63;;;;;;;8.49;87.57;100670.38;5076853;28;20043;-63
2022/04/22 05:12:06;;;;;;;26.38;17.13;;;;;;;8.49;87.75;100673.00;5076519;28;20047;-64
2022/04/22 05:14:31;;;;;;;24.25;17.45;;;;;;;8.46;88.07;100673.06;5076506;28;20043;-64
2022/04/22 05:16:56;;;;;;;25.48;17.65;;;;;;;8.48;88.05;100670.44;5076381;28;20036;-62
2022/04/22 05:19:22;;;;;;;24.10;17.25;;;;;;;8.47;88.19;100672.19;5075911;28;20039;-63
2022/04/22 05:21:48;;;;;;;25.15;16.92;;;;;;;8.51;88.02;100663.44;5076435;28;20024;-63
2022/04/22 05:24:13;;;;;;;31.00;18.70;;;;;;;8.54;88.59;100676.44;5075911;28;20078;-62
2022/04/22 05:26:39;;;;;;;25.83;17.52;;;;;;;8.54;88.46;100668.63;5076053;28;20427;-62
2022/04/22 05:29:04;;;;;;;27.10;17.05;;;;;;;8.65;88.17;100674.63;5075980;28;20071;-63
2022/04/22 05:34:13;;;;;;;27.95;18.05;;;;;;;8.85;87.72;100682.25;5076041;28;20424;-62
2022/04/22 05:36:40;;;;;;;23.80;16.25;;;;;;;8.89;87.56;100675.28;5075908;28;20060;-62
2022/04/22 05:39:08;;;;;;;28.25;18.13;;;;;;;8.87;87.86;100675.28;5075934;28;20032;-64
2022/04/22 05:41:35;;;;;;;28.13;17.67;;;;;;;8.94;87.52;100679.59;5075646;28;20028;-62
2022/04/22 05:44:02;;;;;;;24.67;18.42;;;;;;;8.96;88.27;100680.44;5075422;28;20420;-61
2022/04/22 05:46:28;;;;;;;29.50;18.38;;;;;;;9.04;87.77;100678.59;5075772;28;20063;-64
2022/04/22 05:48:53;;;;;;;28.60;18.35;;;;;;;9.29;87.21;100680.97;5075668;28;20064;-62
2022/04/22 05:51:18;;;;;;;25.52;18.73;;;;;;;9.36;86.47;100678.25;5075738;28;20428;-63
2022/04/22 05:53:47;;;;;;;28.08;17.52;;;;;;;9.49;86.19;100688.59;5075640;28;20111;-62
2022/04/22 05:56:12;;;;;;;34.33;18.85;;;;;;;9.46;86.11;100686.00;5075379;28;20102;-63
2022/04/22 05:58:37;;;;;;;34.45;19.10;;;;;;;9.49;86.88;100680.75;5075130;28;20111;-62
2022/04/22 06:01:03;;;;;;;28.67;19.17;;;;;;;9.53;86.36;100685.91;5075100;28;20436;-57
2022/04/22 06:03:30;;;;;;;29.48;19.65;;;;;;;9.48;86.95;100690.34;5075341;28;20059;-59
2022/04/22 06:05:55;;;;;;;29.75;20.20;;;;;;;9.58;86.31;100688.47;5074655;28;20496;-60
2022/04/22 06:11:05;;;;;;;27.00;19.55;;;;;;;9.86;85.57;100684.66;5074954;28;20038;-60
2022/04/22 06:13:30;;;;;;;28.27;19.42;;;;;;;9.86;85.61;100678.56;5075712;28;20094;-62
2022/04/22 06:15:56;;;;;;;39.78;20.88;;;;;;;9.83;86.13;100681.22;5075104;28;20036;-61
2022/04/22 06:18:23;;;;;;;27.05;19.83;;;;;;;9.95;85.91;100678.41;5075385;28;20447;-61
2022/04/22 06:20:48;;;;;;;27.83;19.02;;;;;;;10.05;85.77;100675.66;5075142;28;20039;-63
2022/04/22 06:23:13;;;;;;;27.90;19.45;;;;;;;10.11;85.40;100667.72;5075137;28;20024;-62
2022/04/22 06:25:45;;;;;;;30.58;19.90;;;;;;;10.49;84.38;100673.31;5074751;28;20032;-61
2022/04/22 06:28:11;;;;;;;30.05;20.08;;;;;;;10.64;83.04;100673.94;5075315;28;20028;-61
2022/04/22 06:30:36;;;;;;;26.92;19.65;;;;;;;10.64;83.18;100675.69;5075423;28;20124;-60
2022/04/22 06:33:03;;;;;;;28.10;19.60;;;;;;;10.62;82.97;100675.69;5074677;28;20143;-62
2022/04/22 06:35:28;;;;;;;29.17;21.00;;;;;;;10.53;83.92;100672.38;5075259;28;20101;-61
2022/04/22 06:37:54;;;;;;;26.20;20.05;;;;;;;10.57;83.79;100680.13;5073792;28;20048;-61
2022/04/22 06:45:50;;;;;;;40.92;21.85;;;;;;;11.09;81.98;100671.38;5075293;28;20135;-62
2022/04/22 06:48:19;;;;;;;27.73;19.10;;;;;;;11.19;81.49;100670.34;5074954;28;20036;-61
2022/04/22 06:50:47;;;;;;;27.42;19.67;;;;;;;11.24;80.88;100670.28;5074555;28;20035;-62
2022/04/22 06:53:14;;;;;;;28.73;20.75;;;;;;;11.14;81.73;100675.66;5074309;28;20033;-62
2022/04/22 06:55:40;;;;;;;42.10;20.42;;;;;;;11.12;80.98;100653.88;5074778;28;20037;-62
2022/04/22 06:58:11;;;;;;;29.52;18.85;;;;;;;11.19;81.10;100670.34;5074898;28;20044;-61
2022/04/22 07:00:36;;;;;;;29.48;20.45;;;;;;;11.29;80.56;100671.88;5074743;28;20054;-62
2022/04/22 07:03:02;;;;;;;26.10;19.52;;;;;;;11.25;80.29;100672.00;5074551;28;20131;-62
2022/04/22 07:05:28;;;;;;;29.00;20.25;;;;;;;11.39;80.22;100673.47;5074741;28;20060;-61
2022/04/22 07:07:53;;;;;;;27.60;20.40;;;;;;;11.46;79.66;100664.56;5074794;28;20040;-60
2022/04/22 07:10:19;;;;;;;28.48;19.65;;;;;;;11.49;80.04;100667.13;5074569;28;20033;-61
2022/04/22 07:12:44;;;;;;;29.08;20.27;;;;;;;11.61;79.42;100660.75;5074821;28;20033;-61
2022/04/22 07:15:10;;;;;;;38.30;21.60;;;;;;;11.63;78.56;100655.50;5074054;28;20363;-61
2022/04/22 07:17:38;;;;;;;27.00;20.17;;;;;;;11.60;79.27;100661.66;5075771;28;20117;-61
2022/04/22 07:20:09;;;;;;;29.88;20.35;;;;;;;11.73;79.01;100659.66;5078494;28;20059;-61
2022/04/22 07:22:38;;;;;;;26.60;19.75;;;;;;;11.80;78.42;100661.28;5078524;28;20029;-63
2022/04/22 07:25:05;;;;;;;26.83;18.63;;;;;;;11.82;78.44;100662.13;5078254;28;20036;-61
2022/04/22 07:27:33;;;;;;;29.13;19.85;;;;;;;11.87;77.80;100654.16;5078213;28;20029;-64
2022/04/22 07:29:59;;;;;;;23.38;17.60;;;;;;;12.08;76.91;100641.44;5077964;28;20139;-62
2022/04/22 07:32:25;;;;;;;24.98;18.95;;;;;;;12.17;76.81;100641.22;5078294;28;20048;-60
2022/04/22 07:34:50;;;;;;;25.88;18.42;;;;;;;12.41;76.22;100645.03;5077747;28;20063;-61
2022/04/22 07:37:16;;;;;;;26.30;19.02;;;;;;;12.50;75.19;100631.66;5078010;28;20044;-61
2022/04/22 07:39:41;;;;;;;23.52;18.13;;;;;;;12.54;75.02;100641.19;5078490;28;20032;-61
2022/04/22 07:42:07;;;;;;;23.38;18.55;;;;;;;12.57;75.05;100637.63;5077881;28;20028;-62
2022/04/22 07:47:19;;;;;;;24.40;18.58;;;;;;;12.75;74.66;100650.31;5076604;28;20044;-53
2022/04/22 07:49:44;;;;;;;23.15;17.75;;;;;;;12.98;72.69;100641.84;5077714;28;20032;-62
2022/04/22 07:52:09;;;;;;;23.35;17.33;;;;;;;13.03;72.56;100645.19;5077477;28;20111;-61
2022/04/22 07:54:35;;;;;;;24.02;16.92;;;;;;;13.11;71.76;100645.00;5078194;28;20124;-60
2022/04/22 07:57:00;;;;;;;23.90;17.48;;;;;;;12.92;72.04;100646.38;5077403;28;20039;-61
2022/04/22 07:59:28;;;;;;;20.92;16.27;;;;;;;12.87;71.71;100641.25;5076973;28;20028;-61
2022/04/22 08:01:53;;;;;;;22.92;16.33;;;;;;;12.81;71.54;100651.91;5077607;28;20398;-60
2022/04/22 08:04:18;;;;;;;21.60;16.70;;;;;;;12.82;71.76;100649.22;5078101;28;20044;-62
2022/04/22 08:06:44;;;;;;;19.08;16.05;;;;;;;12.80;71.44;100640.56;5077555;28;20072;-61
2022/04/22 08:09:09;;;;;;;20.15;16.35;;;;;;;12.92;71.33;100641.13;5077496;28;20087;-60
2022/04/22 08:11:35;;;;;;;22.55;16.35;;;;;;;13.08;71.17;100645.94;5077558;28;20037;-61
2022/04/22 08:14:00;;;;;;;20.20;15.77;;;;;;;12.97;70.93;100639.25;5077232;28;20036;-61
2022/04/22 08:16:26;;;;;;;20.95;16.27;;;;;;;12.95;71.40;100630.53;5077434;28;20035;-61
2022/04/22 08:18:51;;;;;;;21.25;16.65;;;;;;;13.00;70.85;100633.88;5077630;28;20166;-61
2022/04/22 08:21:17;;;;;;;22.88;17.15;;;;;;;13.01;70.88;100641.72;5077120;28;20032;-61
2022/04/22 08:23:43;;;;;;;21.67;16.25;;;;;;;12.95;71.46;100626.16;5077110;28;20043;-57
2022/04/22 08:26:09;;;;;;;20.70;16.25;;;;;;;13.01;71.30;100627.72;5077104;28;20024;-63
2022/04/22 08:28:34;;;;;;;19.88;16.67;;;;;;;13.04;71.96;100639.03;5076587;28;20052;-61
2022/04/22 08:31:00;;;;;;;19.85;16.50;;;;;;;13.03;71.23;100636.44;5076826;28;20438;-61
2022/04/22 08:33:26;;;;;;;22.90;16.40;;;;;;;13.03;71.16;100634.69;5077120;28;20114;-61
2022/04/22 08:35:51;;;;;;;22.30;16.80;;;;;;;13.16;71.26;100638.72;5077005;28;20101;-61
2022/04/22 08:38:17;;;;;;;23.60;17.23;;;;;;;13.21;70.50;100607.94;5077132;28;20028;-61
2022/04/22 08:40:43;;;;;;;22.00;16.80;;;;;;;13.38;70.54;100617.97;5076964;28;20149;-60
2022/04/22 08:43:08;;;;;;;21.98;16.65;;;;;;;13.62;69.72;100587.47;5076948;28;20060;-61
2022/04/22 08:45:35;;;;;;;21.67;16.92;;;;;;;13.90;69.61;100598.00;5076924;28;20356;-61
2022/04/22 08:50:53;;;;;;;20.35;15.40;;;;;;;14.40;67.26;100593.78;5076222;28;20122;-62
2022/04/22 08:53:26;;;;;;;21.92;16.27;;;;;;;14.38;66.02;100606.09;5076855;28;20060;-61
2022/04/22 08:55:57;;;;;;;20.58;15.25;;;;;;;14.01;67.27;100614.34;5076587;28;20384;-62
2022/04/22 08:58:24;;;;;;;22.15;15.45;;;;;;;14.02;66.81;100613.44;5076786;28;20111;-61
2022/04/22 09:00:51;;;;;;;21.20;15.80;;;;;;;13.94;67.45;100612.81;5076523;28;20064;-61
2022/04/22 09:03:17;;;;;;;22.15;15.52;;;;;;;14.05;66.71;100605.44;5076332;28;20060;-63
2022/04/22 09:05:43;;;;;;;20.13;15.18;;;;;;;14.05;67.41;100610.69;5076683;28;20043;-61
2022/04/22 09:08:10;;;;;;;21.13;16.08;;;;;;;14.41;66.40;100606.03;5076359;28;20440;-61
2022/04/22 09:10:38;;;;;;;20.45;15.90;;;;;;;14.39;66.05;100596.44;5077132;28;20344;-61
2022/04/22 09:13:09;;;;;;;21.27;15.00;;;;;;;14.52;65.63;100595.19;5076381;28;20032;-60
2022/04/22 09:15:36;;;;;;;21.52;15.43;;;;;;;14.59;65.90;100599.31;5076219;28;20033;-60
2022/04/22 09:18:12;;;;;;;19.75;16.20;;;;;;;14.77;65.36;100590.78;5076042;28;20037;-61
2022/04/22 09:20:39;;;;;;;19.00;14.50;;;;;;;14.79;63.35;100599.50;5075915;28;20040;-61
2022/04/22 09:23:42;;;;;;;18.05;14.50;;;;;;;14.93;64.04;100585.84;5076065;28;20036;-63
2022/04/22 09:26:22;;;;;;;15.85;13.02;;;;;;;14.87;62.72;100586.94;4994648;28;20077;-60
2022/04/22 09:29:05;;;;;;;17.10;13.77;;;;;;;14.96;63.12;100568.16;4994783;28;20049;-61
2022/04/22 09:31:44;;;;;;;21.25;14.75;;;;;;;15.09;62.76;100565.06;5049528;28;20040;-61
2022/04/22 09:34:10;;;;;;;17.88;14.02;;;;;;;15.18;62.00;100583.19;5075933;28;20064;-62
2022/04/22 09:44:51;;;;;;;16.45;13.25;;;;;;;14.27;64.04;100564.34;5075697;28;20055;-61
2022/04/22 09:47:16;;;;;;;17.42;13.85;;;;;;;14.31;64.54;100561.63;5075447;28;20032;-61
2022/04/22 09:49:45;;;;;;;18.60;13.75;;;;;;;14.44;64.38;100558.56;5075181;28;20037;-61
2022/04/22 09:52:11;;;;;;;17.75;13.40;;;;;;;14.49;64.05;100545.25;5075562;28;20066;-61
2022/04/22 09:54:39;;;;;;;16.75;13.52;;;;;;;14.62;63.68;100554.44;5075233;28;20044;-60
2022/04/22 09:57:05;;;;;;;16.63;13.75;;;;;;;14.75;63.38;100544.31;5075350;28;20089;-61
2022/04/22 09:59:32;;;;;;;16.08;12.57;;;;;;;14.71;62.52;100548.88;5075502;28;20107;-61
2022/04/22 10:02:00;;;;;;;15.90;12.60;;;;;;;14.68;60.97;100542.84;5075250;28;20037;-60
2022/04/22 10:04:27;;;;;;;16.60;12.15;;;;;;;14.57;60.83;100543.19;5075661;28;20071;-60
2022/04/22 10:06:52;;;;;;;14.20;11.98;;;;;;;14.59;61.04;100533.47;5075063;28;20043;-62
2022/04/22 10:09:19;;;;;;;13.85;11.63;;;;;;;14.62;60.40;100528.97;5075450;28;20111;-60
2022/04/22 10:11:52;;;;;;;13.05;10.85;;;;;;;14.62;59.69;100539.50;5075076;28;20297;-61
2022/04/22 10:14:22;;;;;;;15.13;10.45;;;;;;;14.56;59.54;100534.44;5075090;28;20036;-61
2022/04/22 10:16:49;;;;;;;16.08;11.40;;;;;;;14.42;60.02;100546.34;5075005;28;20032;-62
2022/04/22 10:19:15;;;;;;;15.95;12.05;;;;;;;14.39;60.35;100542.00;5075145;28;20123;-64
2022/04/22 10:21:41;;;;;;;13.45;11.55;;;;;;;14.32;60.40;100523.88;5075225;28;20035;-62
2022/04/22 10:24:08;;;;;;;16.45;11.98;;;;;;;14.37;60.91;100529.84;5075227;28;20040;-63
2022/04/22 10:26:34;;;;;;;13.45;11.90;;;;;;;14.49;60.82;100534.72;5074802;28;20067;-61
2022/04/22 10:29:02;;;;;;;14.15;12.07;;;;;;;14.60;60.85;100527.28;5075348;28;20059;-61
2022/04/22 10:31:28;;;;;;;17.13;12.23;;;;;;;14.89;59.09;100526.28;5074527;28;20039;-61
2022/04/22 10:34:06;;;;;;;16.25;12.32;;;;;;;15.12;59.14;100518.38;5073608;28;20053;-62
2022/04/22 10:36:32;;;;;;;14.98;12.38;;;;;;;15.22;58.31;100513.63;5075053;28;20343;-61
2022/04/22 10:38:58;;;;;;;15.30;13.38;;;;;;;15.14;59.00;100518.31;5074841;28;20124;-61
2022/04/22 10:41:23;;;;;;;17.00;12.57;;;;;;;14.95;58.99;100516.34;5074998;28;20111;-62
2022/04/22 10:49:37;;;;;;;15.40;12.15;;;;;;;14.79;57.88;100515.19;5075103;28;20654;-60
2022/04/22 10:52:09;;;;;;;15.70;12.52;;;;;;;14.73;58.11;100515.41;5075803;28;20327;-61
2022/04/22 10:54:53;;;;;;;14.95;12.38;;;;;;;14.72;58.77;100511.03;5081703;28;20033;-61
2022/04/22 10:57:27;;;;;;;15.07;12.00;;;;;;;14.65;58.15;100501.66;5081468;28;20036;-61
2022/04/22 11:00:07;;;;;;;15.40;12.00;;;;;;;14.70;58.84;100510.28;5082060;28;20032;-62
2022/04/22 11:02:40;;;;;;;16.50;12.27;;;;;;;14.90;58.18;100504.25;5081287;28;20075;-61
2022/04/22 11:05:20;;;;;;;16.00;13.23;;;;;;;15.07;58.25;100509.75;5081035;28;20032;-61
2022/04/22 11:07:58;;;;;;;16.52;13.23;;;;;;;15.08;58.07;100500.94;5081056;28;20094;-60
2022/04/22 11:10:45;;;;;;;16.58;13.30;;;;;;;15.11;57.70;100492.94;5081159;28;20107;-60
2022/04/22 11:13:25;;;;;;;15.65;12.70;;;;;;;15.03;58.01;100491.50;5081207;28;20115;-61
2022/04/22 11:15:51;;;;;;;15.43;12.73;;;;;;;15.02;58.05;100490.66;5081282;28;20043;-61
2022/04/22 11:18:18;;;;;;;17.13;12.80;;;;;;;15.20;57.35;100489.97;5081439;28;20044;-62
2022/04/22 11:20:45;;;;;;;14.38;12.27;;;;;;;15.27;57.24;100493.19;5081101;28;20114;-60
2022/04/22 11:23:14;;;;;;;17.92;12.40;;;;;;;15.39;57.65;100498.03;5081051;28;20366;-61
2022/04/22 11:25:41;;;;;;;25.38;14.10;;;;;;;15.45;56.38;100489.00;5081113;28;20119;-60
2022/04/22 11:28:08;;;;;;;16.42;13.73;;;;;;;15.18;56.79;100485.66;5081201;28;20024;-62
2022/04/22 11:30:33;;;;;;;16.00;12.77;;;;;;;15.03;57.06;100483.59;5081171;28;20054;-60
2022/04/22 11:33:21;;;;;;;15.85;14.13;;;;;;;14.84;58.47;100489.56;5081028;28;20507;-63
2022/04/22 11:35:49;;;;;;;17.08;13.25;;;;;;;14.74;58.01;100496.06;5080995;28;20085;-62
2022/04/22 11:38:15;;;;;;;17.25;13.35;;;;;;;14.59;58.53;100491.34;5081022;28;20094;-61
2022/04/22 11:40:43;;;;;;;18.25;13.38;;;;;;;14.66;57.79;100492.00;5081348;28;20048;-62
2022/04/22 11:43:12;;;;;;;17.15;13.00;;;;;;;14.53;58.29;100486.31;5081721;28;20040;-61
2022/04/22 11:45:43;;;;;;;15.43;13.05;;;;;;;14.50;58.63;100489.03;5081090;28;20036;-61
2022/04/22 11:48:09;;;;;;;19.02;13.20;;;;;;;14.70;58.28;100488.34;5081184;28;20071;-61
2022/04/22 11:50:43;;;;;;;18.85;12.80;;;;;;;14.85;57.71;100487.78;5080727;28;20029;-62
2022/04/22 11:53:16;;;;;;;18.75;12.68;;;;;;;14.94;57.32;100480.38;5081050;28;20409;-62
2022/04/22 11:55:42;;;;;;;15.63;12.77;;;;;;;15.07;56.82;100477.28;5080772;28;20039;-60
2022/04/22 11:58:12;;;;;;;16.17;13.02;;;;;;;15.24;57.20;100478.34;5080786;28;20029;-61
2022/04/22 12:06:14;;;;;;;21.08;13.55;;;;;;;15.82;56.09;100473.47;5077708;28;20047;-62
2022/04/22 12:09:02;;;;;;;17.92;13.07;;;;;;;15.89;55.82;100474.94;5077506;28;20115;-62
2022/04/22 12:11:27;;;;;;;17.67;13.32;;;;;;;15.78;55.73;100478.91;5077805;28;20413;-62
2022/04/22 12:13:53;;;;;;;15.95;12.80;;;;;;;15.79;55.61;100465.66;5077549;28;20127;-62
2022/04/22 12:16:28;;;;;;;14.95;12.48;;;;;;;15.84;55.72;100466.34;5077507;28;20398;-61
2022/04/22 12:18:55;;;;;;;16.88;13.30;;;;;;;15.90;55.72;100454.69;5077408;28;20036;-61